Time;durP1;ratioP1;P1;durP2;ratioP2;P2;SDS_P1;SDS_P2;PMS_P1;PMS_P2;Temp;Humidity;BMP_temperature;BMP_pressure;BME280_temperature;BME280_humidity;BME280_pressure;Samples;Min_cycle;Max_cycle;Signal;HPM_P1;HPM_P2
2021/07/27 00:00:29;;;;;;;9.38;7.62;;;;;;;;;;4388683;32;20214;-58
2021/07/27 00:02:55;;;;;;;9.60;8.60;;;;;;;;;;4388483;32;20298;-57
2021/07/27 00:05:20;;;;;;;9.00;6.35;;;;;;;;;;4388771;32;20297;-57
2021/07/27 00:07:46;;;;;;;16.90;7.68;;;;;;;;;;4388528;32;20323;-56
2021/07/27 00:10:11;;;;;;;10.93;6.82;;;;;;;;;;4374314;32;20307;-56
2021/07/27 00:12:37;;;;;;;10.75;7.65;;;;;;;;;;4383321;32;20210;-57
2021/07/27 00:15:04;;;;;;;9.25;6.57;;;;;;;;;;4373260;32;20521;-57
2021/07/27 00:17:30;;;;;;;12.20;7.25;;;;;;;;;;4373343;32;20356;-57
2021/07/27 00:19:56;;;;;;;13.48;8.38;;;;;;;;;;4373302;32;20281;-57
2021/07/27 00:22:22;;;;;;;12.90;8.52;;;;;;;;;;4372056;32;20327;-57
2021/07/27 00:24:49;;;;;;;12.88;8.68;;;;;;;;;;4382329;32;20233;-56
2021/07/27 00:27:15;;;;;;;11.65;8.07;;;;;;;;;;4386920;32;20206;-57
2021/07/27 00:29:40;;;;;;;13.50;8.85;;;;;;;;;;4388324;32;20222;-56
2021/07/27 00:32:06;;;;;;;12.32;8.23;;;;;;;;;;4387925;32;20289;-58
2021/07/27 00:34:32;;;;;;;13.10;9.27;;;;;;;;;;4386946;32;20381;-57
2021/07/27 00:36:58;;;;;;;12.23;9.20;;;;;;;;;;4387045;32;20679;-57
2021/07/27 00:39:23;;;;;;;13.23;7.65;;;;;;;;;;4388098;32;20256;-57
2021/07/27 00:41:49;;;;;;;10.50;8.00;;;;;;;;;;4387722;32;20326;-57
2021/07/27 00:44:14;;;;;;;12.45;8.15;;;;;;;;;;4387849;32;20225;-57
2021/07/27 00:46:39;;;;;;;10.75;7.03;;;;;;;;;;4388082;32;20618;-56
2021/07/27 00:49:05;;;;;;;10.20;7.10;;;;;;;;;;4387970;32;20701;-57
2021/07/27 00:51:30;;;;;;;12.68;7.70;;;;;;;;;;4387986;32;20265;-57
2021/07/27 00:53:56;;;;;;;11.12;7.93;;;;;;;;;;4387848;32;20225;-56
2021/07/27 00:56:22;;;;;;;10.68;8.13;;;;;;;;;;4387703;32;20300;-57
2021/07/27 00:58:48;;;;;;;13.27;7.25;;;;;;;;;;4386673;32;20634;-57
2021/07/27 01:01:13;;;;;;;11.57;7.47;;;;;;;;;;4387505;32;20280;-57
2021/07/27 01:03:39;;;;;;;12.43;8.02;;;;;;;;;;4387694;32;20221;-57
2021/07/27 01:06:04;;;;;;;10.73;7.75;;;;;;;;;;4387606;32;20293;-57
2021/07/27 01:08:34;;;;;;;15.00;7.45;;;;;;;;;;4387192;32;20243;-57
2021/07/27 01:10:59;;;;;;;15.32;7.78;;;;;;;;;;4387260;32;20260;-57
2021/07/27 01:13:24;;;;;;;11.73;9.13;;;;;;;;;;4387168;32;20654;-57
2021/07/27 01:15:50;;;;;;;11.00;8.30;;;;;;;;;;4387446;32;20277;-57
2021/07/27 01:18:23;;;;;;;12.98;7.95;;;;;;;;;;4387156;32;20329;-56
2021/07/27 01:37:40;;;;;;;22.90;8.40;;;;;;;;;;4387266;32;20236;-56
2021/07/27 01:40:07;;;;;;;11.50;7.55;;;;;;;;;;4387036;32;20601;-57
2021/07/27 01:42:39;;;;;;;17.62;7.60;;;;;;;;;;4387423;32;20292;-57
2021/07/27 01:45:11;;;;;;;12.40;8.30;;;;;;;;;;4386255;32;20268;-56
2021/07/27 01:47:36;;;;;;;17.05;8.73;;;;;;;;;;4387877;32;20343;-58
2021/07/27 01:50:02;;;;;;;11.57;7.60;;;;;;;;;;4385848;32;20296;-56
2021/07/27 01:52:28;;;;;;;10.23;6.90;;;;;;;;;;4387436;32;20316;-56
2021/07/27 01:54:55;;;;;;;14.10;8.15;;;;;;;;;;4387077;32;20233;-57
2021/07/27 01:57:22;;;;;;;11.05;7.18;;;;;;;;;;4387576;32;20246;-57
2021/07/27 01:59:50;;;;;;;10.32;7.85;;;;;;;;;;4387747;32;20299;-57
2021/07/27 02:02:15;;;;;;;11.02;7.85;;;;;;;;;;4387246;32;21290;-56
2021/07/27 02:04:41;;;;;;;16.75;7.93;;;;;;;;;;4384764;32;20586;-56
2021/07/27 02:07:07;;;;;;;16.30;8.27;;;;;;;;;;4371820;32;20278;-56
2021/07/27 02:09:36;;;;;;;11.77;7.65;;;;;;;;;;4372453;32;20304;-57
2021/07/27 02:12:02;;;;;;;13.50;8.57;;;;;;;;;;4370686;32;20609;-56
2021/07/27 02:15:03;;;;;;;11.90;8.13;;;;;;;;;;4372564;32;20251;-56
2021/07/27 02:17:13;;;;;;;15.32;8.73;;;;;;;;;;4372242;32;20258;-57
2021/07/27 02:19:39;;;;;;;15.45;9.48;;;;;;;;;;4372401;32;20230;-57
2021/07/27 02:22:04;;;;;;;12.48;8.80;;;;;;;;;;4372270;32;20284;-58
2021/07/27 02:24:30;;;;;;;9.55;7.85;;;;;;;;;;4382768;32;20225;-58
2021/07/27 02:26:55;;;;;;;10.43;8.00;;;;;;;;;;4389711;32;20281;-57
2021/07/27 02:29:21;;;;;;;15.05;11.15;;;;;;;;;;4389748;32;20348;-57
2021/07/27 02:31:46;;;;;;;22.40;16.52;;;;;;;;;;4382921;32;20281;-57
2021/07/27 02:34:12;;;;;;;23.73;17.58;;;;;;;;;;4374377;32;20454;-56
2021/07/27 02:36:37;;;;;;;23.40;17.25;;;;;;;;;;4373450;32;20340;-57
2021/07/27 02:39:06;;;;;;;20.08;15.65;;;;;;;;;;4374746;32;20837;-57
2021/07/27 02:41:32;;;;;;;17.40;11.85;;;;;;;;;;4374647;32;20309;-57
2021/07/27 02:43:59;;;;;;;13.52;10.32;;;;;;;;;;4374475;32;20301;-57
2021/07/27 02:46:25;;;;;;;15.02;9.40;;;;;;;;;;4375055;32;20236;-56
2021/07/27 02:48:50;;;;;;;16.62;9.30;;;;;;;;;;4374910;32;20226;-56
2021/07/27 02:51:15;;;;;;;14.73;10.48;;;;;;;;;;4374640;32;20331;-56
2021/07/27 02:53:41;;;;;;;15.02;10.70;;;;;;;;;;4374686;32;20225;-58
2021/07/27 02:56:06;;;;;;;19.90;10.00;;;;;;;;;;4374571;32;20273;-57
2021/07/27 02:58:33;;;;;;;13.75;8.68;;;;;;;;;;4374957;32;20319;-58
2021/07/27 03:01:02;;;;;;;12.15;8.88;;;;;;;;;;4374230;32;20356;-56
2021/07/27 03:03:28;;;;;;;10.63;8.50;;;;;;;;;;4373008;32;20651;-56
2021/07/27 03:05:56;;;;;;;11.88;8.93;;;;;;;;;;4374405;32;20682;-58
2021/07/27 03:08:23;;;;;;;14.00;9.45;;;;;;;;;;4372965;32;20391;-56
2021/07/27 03:10:48;;;;;;;12.27;9.52;;;;;;;;;;4372744;32;20563;-57
2021/07/27 03:13:14;;;;;;;15.20;8.43;;;;;;;;;;4374040;32;20295;-57
2021/07/27 03:15:40;;;;;;;18.20;9.93;;;;;;;;;;4374633;32;20273;-56
2021/07/27 03:18:05;;;;;;;12.32;7.95;;;;;;;;;;4374180;32;20306;-57
2021/07/27 03:20:32;;;;;;;11.40;8.30;;;;;;;;;;4374319;32;20272;-56
2021/07/27 03:22:58;;;;;;;9.40;8.20;;;;;;;;;;4374213;32;20232;-57
2021/07/27 03:25:24;;;;;;;14.90;7.68;;;;;;;;;;4384279;32;20324;-58
2021/07/27 03:27:51;;;;;;;10.60;8.02;;;;;;;;;;4373769;32;20269;-57
2021/07/27 03:30:18;;;;;;;15.15;8.68;;;;;;;;;;4374001;32;20244;-57
2021/07/27 03:32:46;;;;;;;14.45;7.93;;;;;;;;;;4386410;32;20251;-57
2021/07/27 03:35:14;;;;;;;13.18;8.10;;;;;;;;;;4388069;32;20206;-58
2021/07/27 03:37:40;;;;;;;17.25;12.75;;;;;;;;;;4388088;32;20436;-58
2021/07/27 03:40:06;;;;;;;15.30;13.35;;;;;;;;;;4388938;32;20712;-57
2021/07/27 03:42:33;;;;;;;20.88;12.48;;;;;;;;;;4388719;32;20621;-58
2021/07/27 03:44:59;;;;;;;18.35;10.20;;;;;;;;;;4388898;32;20403;-57
2021/07/27 03:47:25;;;;;;;14.93;10.23;;;;;;;;;;4387626;32;20700;-57
2021/07/27 03:49:51;;;;;;;19.73;10.73;;;;;;;;;;4388811;32;20229;-56
2021/07/27 03:52:16;;;;;;;20.30;10.52;;;;;;;;;;4388929;32;20264;-56
2021/07/27 03:54:42;;;;;;;13.52;10.02;;;;;;;;;;4387698;32;20304;-56
2021/07/27 03:57:08;;;;;;;18.45;12.05;;;;;;;;;;4386361;32;20308;-57
2021/07/27 03:59:34;;;;;;;19.50;10.13;;;;;;;;;;4374167;32;20256;-58
2021/07/27 04:02:00;;;;;;;16.58;10.10;;;;;;;;;;4373272;32;20209;-58
2021/07/27 04:04:26;;;;;;;16.70;9.20;;;;;;;;;;4373639;32;20222;-58
2021/07/27 04:06:52;;;;;;;19.67;10.18;;;;;;;;;;4373223;32;20323;-57
2021/07/27 04:09:18;;;;;;;15.50;10.13;;;;;;;;;;4371615;32;20233;-57
2021/07/27 04:11:43;;;;;;;19.25;10.70;;;;;;;;;;4372968;32;20665;-57
2021/07/27 04:14:12;;;;;;;16.30;10.25;;;;;;;;;;4373258;32;20697;-57
2021/07/27 04:16:39;;;;;;;13.00;9.35;;;;;;;;;;4371875;32;20682;-57
2021/07/27 04:19:05;;;;;;;15.05;9.57;;;;;;;;;;4372902;32;20434;-57
2021/07/27 04:21:32;;;;;;;14.13;9.32;;;;;;;;;;4373084;32;20289;-56
2021/07/27 04:23:58;;;;;;;15.85;10.85;;;;;;;;;;4376551;32;20301;-57
2021/07/27 04:26:24;;;;;;;17.30;10.18;;;;;;;;;;4387975;32;20297;-57
2021/07/27 04:28:49;;;;;;;13.93;10.00;;;;;;;;;;4388117;32;20684;-57
2021/07/27 04:31:16;;;;;;;17.75;10.57;;;;;;;;;;4387618;32;20292;-56
2021/07/27 04:33:41;;;;;;;16.25;11.20;;;;;;;;;;4383797;32;20225;-57
2021/07/27 04:36:10;;;;;;;21.17;11.00;;;;;;;;;;4386269;32;20335;-57
2021/07/27 04:38:36;;;;;;;17.05;10.30;;;;;;;;;;4387555;32;20247;-57
2021/07/27 04:41:04;;;;;;;10.73;8.68;;;;;;;;;;4387779;32;20670;-57
2021/07/27 04:43:30;;;;;;;12.10;9.25;;;;;;;;;;4372657;32;20568;-57
2021/07/27 04:45:59;;;;;;;15.85;10.07;;;;;;;;;;4372936;32;20289;-62
2021/07/27 04:48:25;;;;;;;11.68;9.02;;;;;;;;;;4372157;32;20342;-56
2021/07/27 04:50:50;;;;;;;12.90;9.65;;;;;;;;;;4380033;32;20394;-57
2021/07/27 04:53:21;;;;;;;21.05;10.02;;;;;;;;;;4387975;32;20276;-56
2021/07/27 04:55:47;;;;;;;16.17;8.93;;;;;;;;;;4387660;32;20274;-56
2021/07/27 04:58:12;;;;;;;14.48;9.38;;;;;;;;;;4386334;32;20381;-56
2021/07/27 05:00:38;;;;;;;17.45;8.80;;;;;;;;;;4387708;32;20338;-56
2021/07/27 05:03:04;;;;;;;16.45;10.27;;;;;;;;;;4387388;32;20211;-57
2021/07/27 05:05:29;;;;;;;13.50;9.75;;;;;;;;;;4386625;32;20300;-58
2021/07/27 05:07:55;;;;;;;15.85;10.32;;;;;;;;;;4387106;32;20288;-57
2021/07/27 05:10:21;;;;;;;12.70;9.55;;;;;;;;;;4387238;32;20544;-56
2021/07/27 05:12:46;;;;;;;9.52;8.30;;;;;;;;;;4387853;32;20519;-57
2021/07/27 05:15:12;;;;;;;17.65;11.10;;;;;;;;;;4387827;32;20368;-56
2021/07/27 05:17:38;;;;;;;13.40;9.75;;;;;;;;;;4387454;32;20292;-58
2021/07/27 05:20:05;;;;;;;16.62;9.07;;;;;;;;;;4387478;32;20225;-58
2021/07/27 05:22:34;;;;;;;15.88;10.05;;;;;;;;;;4386085;32;20306;-57
2021/07/27 05:25:00;;;;;;;17.15;10.77;;;;;;;;;;4387570;32;20394;-57
2021/07/27 05:27:27;;;;;;;17.62;9.90;;;;;;;;;;4387972;32;20284;-56
2021/07/27 05:29:53;;;;;;;16.55;10.27;;;;;;;;;;4387516;32;20335;-56
2021/07/27 05:32:19;;;;;;;20.60;11.15;;;;;;;;;;4387564;32;20218;-57
2021/07/27 05:34:45;;;;;;;29.48;10.15;;;;;;;;;;4387500;32;20327;-57
2021/07/27 05:37:10;;;;;;;12.57;9.43;;;;;;;;;;4387783;32;20303;-59
2021/07/27 05:39:36;;;;;;;21.17;11.12;;;;;;;;;;4387285;32;20213;-56
2021/07/27 05:42:02;;;;;;;15.88;10.63;;;;;;;;;;4386830;32;20315;-56
2021/07/27 05:44:28;;;;;;;17.67;10.93;;;;;;;;;;4386665;32;20608;-56
2021/07/27 05:46:54;;;;;;;17.75;10.10;;;;;;;;;;4387243;32;20713;-56
2021/07/27 05:49:21;;;;;;;14.68;10.60;;;;;;;;;;4387780;32;20658;-57
2021/07/27 05:51:47;;;;;;;16.62;11.25;;;;;;;;;;4387106;32;20219;-57
2021/07/27 05:54:13;;;;;;;27.40;12.02;;;;;;;;;;4387370;32;20293;-57
2021/07/27 05:56:38;;;;;;;13.27;10.60;;;;;;;;;;4387147;32;20321;-57
2021/07/27 05:59:04;;;;;;;18.17;10.63;;;;;;;;;;4388847;32;20226;-57
2021/07/27 06:01:29;;;;;;;15.80;11.02;;;;;;;;;;4390138;32;20358;-56
2021/07/27 06:03:55;;;;;;;21.00;12.02;;;;;;;;;;4390227;32;20291;-56
2021/07/27 06:06:21;;;;;;;18.00;10.50;;;;;;;;;;4390761;32;20793;-58
2021/07/27 06:08:46;;;;;;;15.18;10.20;;;;;;;;;;4390480;32;20264;-57
2021/07/27 06:11:13;;;;;;;14.68;10.27;;;;;;;;;;4390088;32;20764;-57
2021/07/27 06:13:39;;;;;;;20.95;10.20;;;;;;;;;;4390122;32;20279;-56
2021/07/27 06:16:05;;;;;;;14.30;10.48;;;;;;;;;;4390210;32;20660;-58
2021/07/27 06:18:32;;;;;;;26.85;11.10;;;;;;;;;;4390847;32;20218;-56
2021/07/27 06:20:58;;;;;;;25.08;10.85;;;;;;;;;;4390141;32;20229;-57
2021/07/27 06:23:23;;;;;;;14.02;10.70;;;;;;;;;;4389851;32;20272;-57
2021/07/27 06:25:49;;;;;;;17.12;9.50;;;;;;;;;;4389976;32;20272;-57
2021/07/27 06:28:14;;;;;;;15.05;10.13;;;;;;;;;;4389978;32;20220;-56
2021/07/27 06:30:40;;;;;;;13.88;9.80;;;;;;;;;;4389939;32;20732;-57
2021/07/27 06:33:05;;;;;;;14.55;9.95;;;;;;;;;;4389820;32;20222;-57
2021/07/27 06:35:31;;;;;;;12.85;8.82;;;;;;;;;;4390169;32;20459;-58
2021/07/27 06:37:56;;;;;;;23.60;11.07;;;;;;;;;;4388131;32;20320;-57
2021/07/27 06:40:22;;;;;;;15.07;9.60;;;;;;;;;;4390164;32;20313;-58
2021/07/27 06:42:47;;;;;;;15.38;9.75;;;;;;;;;;4389132;32;20308;-58
2021/07/27 06:45:14;;;;;;;18.15;9.77;;;;;;;;;;4388693;32;20324;-57
2021/07/27 06:47:39;;;;;;;14.05;10.48;;;;;;;;;;4389616;32;20287;-58
2021/07/27 06:50:05;;;;;;;17.90;9.82;;;;;;;;;;4389409;32;20297;-58
2021/07/27 06:52:31;;;;;;;14.75;9.40;;;;;;;;;;4390061;32;20276;-57
2021/07/27 06:54:57;;;;;;;11.48;9.77;;;;;;;;;;4388344;32;20255;-57
2021/07/27 06:57:22;;;;;;;18.12;11.43;;;;;;;;;;4389927;32;20292;-57
2021/07/27 06:59:48;;;;;;;13.07;9.82;;;;;;;;;;4388503;32;20249;-57
2021/07/27 07:02:13;;;;;;;24.23;10.30;;;;;;;;;;4389452;32;20621;-57
2021/07/27 07:04:38;;;;;;;12.52;8.80;;;;;;;;;;4389490;32;20283;-57
2021/07/27 07:07:07;;;;;;;13.43;10.27;;;;;;;;;;4389684;32;20704;-57
2021/07/27 07:09:33;;;;;;;16.58;9.98;;;;;;;;;;4389046;32;20234;-57
2021/07/27 07:11:58;;;;;;;14.68;9.80;;;;;;;;;;4389378;32;20221;-57
2021/07/27 07:14:24;;;;;;;17.73;9.48;;;;;;;;;;4389434;32;20229;-57
2021/07/27 07:16:49;;;;;;;15.40;10.13;;;;;;;;;;4387974;32;20304;-57
2021/07/27 07:19:15;;;;;;;13.88;9.23;;;;;;;;;;4388214;32;20303;-57
2021/07/27 07:21:40;;;;;;;14.48;8.95;;;;;;;;;;4389258;32;20331;-58
2021/07/27 07:24:06;;;;;;;14.87;8.75;;;;;;;;;;4388957;32;20252;-58
2021/07/27 07:26:32;;;;;;;11.60;8.93;;;;;;;;;;4389046;32;20277;-59
2021/07/27 07:28:57;;;;;;;15.43;8.63;;;;;;;;;;4388968;32;20222;-57
2021/07/27 07:31:23;;;;;;;16.83;10.15;;;;;;;;;;4384788;32;20292;-58
2021/07/27 07:33:48;;;;;;;14.73;9.65;;;;;;;;;;4376911;32;20213;-57
2021/07/27 07:36:15;;;;;;;15.90;8.82;;;;;;;;;;4387740;32;20751;-57
2021/07/27 07:38:42;;;;;;;11.88;8.95;;;;;;;;;;4388325;32;20218;-58
2021/07/27 07:41:11;;;;;;;14.87;8.55;;;;;;;;;;4388480;32;20270;-57
2021/07/27 07:43:37;;;;;;;10.90;8.20;;;;;;;;;;4388769;32;20225;-56
2021/07/27 07:46:03;;;;;;;11.15;8.88;;;;;;;;;;4388846;32;20342;-57
2021/07/27 07:48:28;;;;;;;11.77;7.80;;;;;;;;;;4388660;32;20241;-57
2021/07/27 07:50:54;;;;;;;8.70;6.68;;;;;;;;;;4388702;32;20576;-58
2021/07/27 07:53:19;;;;;;;14.15;7.40;;;;;;;;;;4388617;32;20244;-58
2021/07/27 07:55:45;;;;;;;13.80;8.15;;;;;;;;;;4388998;32;20303;-56
2021/07/27 07:58:10;;;;;;;16.52;8.68;;;;;;;;;;4388764;32;20230;-56
2021/07/27 08:00:36;;;;;;;9.60;8.68;;;;;;;;;;4374894;32;20369;-57
2021/07/27 08:03:03;;;;;;;14.27;9.45;;;;;;;;;;4388419;32;20330;-57
2021/07/27 08:05:29;;;;;;;11.40;7.70;;;;;;;;;;4389226;32;20240;-56
2021/07/27 08:07:55;;;;;;;9.40;7.55;;;;;;;;;;4388941;32;20828;-56
2021/07/27 08:10:21;;;;;;;18.23;9.18;;;;;;;;;;4388820;32;20225;-56
2021/07/27 08:12:47;;;;;;;13.07;7.65;;;;;;;;;;4388439;32;20209;-57
2021/07/27 08:15:17;;;;;;;11.07;7.85;;;;;;;;;;4388581;32;20656;-58
2021/07/27 08:17:44;;;;;;;10.50;7.87;;;;;;;;;;4388613;32;20346;-56
2021/07/27 08:20:10;;;;;;;13.88;8.40;;;;;;;;;;4388394;32;20618;-57
2021/07/27 08:22:42;;;;;;;11.85;7.60;;;;;;;;;;4387345;32;20610;-57
2021/07/27 08:25:16;;;;;;;9.98;7.25;;;;;;;;;;4388512;32;20290;-57
2021/07/27 08:27:43;;;;;;;9.45;7.95;;;;;;;;;;4388722;32;20244;-57
2021/07/27 08:30:10;;;;;;;11.27;7.82;;;;;;;;;;4384197;32;20230;-56
2021/07/27 08:32:35;;;;;;;16.25;9.05;;;;;;;;;;4385609;32;20318;-57
2021/07/27 08:35:01;;;;;;;12.65;7.32;;;;;;;;;;4387238;32;20241;-58
2021/07/27 08:37:27;;;;;;;16.58;8.75;;;;;;;;;;4388964;32;20698;-57
2021/07/27 08:39:59;;;;;;;10.80;8.20;;;;;;;;;;4388420;32;20716;-57
2021/07/27 08:42:28;;;;;;;10.05;7.60;;;;;;;;;;4387999;32;20221;-56
2021/07/27 08:45:01;;;;;;;11.68;6.95;;;;;;;;;;4388090;32;20237;-57
2021/07/27 08:47:27;;;;;;;11.02;7.80;;;;;;;;;;4388038;32;20226;-56
2021/07/27 08:49:55;;;;;;;9.63;8.18;;;;;;;;;;4388553;32;20293;-57
2021/07/27 08:52:21;;;;;;;10.88;8.02;;;;;;;;;;4388744;32;20236;-57
2021/07/27 08:54:47;;;;;;;14.23;7.10;;;;;;;;;;4386879;32;20229;-57
2021/07/27 08:57:14;;;;;;;10.68;8.07;;;;;;;;;;4386403;32;20376;-57
2021/07/27 08:59:40;;;;;;;9.80;8.23;;;;;;;;;;4387573;32;20268;-56
2021/07/27 09:02:06;;;;;;;10.88;7.75;;;;;;;;;;4387970;32;20289;-57
2021/07/27 09:04:31;;;;;;;9.10;7.40;;;;;;;;;;4387928;32;20252;-57
2021/07/27 09:07:01;;;;;;;11.80;7.72;;;;;;;;;;4387654;32;20325;-57
2021/07/27 09:09:31;;;;;;;10.70;7.47;;;;;;;;;;4387763;32;20286;-57
2021/07/27 09:11:58;;;;;;;12.00;8.27;;;;;;;;;;4387141;32;20221;-58
2021/07/27 09:14:24;;;;;;;11.60;8.07;;;;;;;;;;4386181;32;20237;-57
2021/07/27 09:16:54;;;;;;;12.07;8.18;;;;;;;;;;4387347;32;20300;-59
2021/07/27 09:19:19;;;;;;;13.07;8.80;;;;;;;;;;4387659;32;20261;-57
2021/07/27 09:21:46;;;;;;;9.48;8.15;;;;;;;;;;4387247;32;20598;-57
2021/07/27 09:24:20;;;;;;;10.85;7.37;;;;;;;;;;4387337;32;20225;-58
2021/07/27 09:27:00;;;;;;;17.83;9.13;;;;;;;;;;4387443;32;20358;-57
2021/07/27 09:29:30;;;;;;;12.27;7.80;;;;;;;;;;4388032;32;20642;-57
2021/07/27 09:32:00;;;;;;;17.52;7.25;;;;;;;;;;4387105;32;20217;-57
2021/07/27 09:34:29;;;;;;;11.68;7.22;;;;;;;;;;4391939;32;20352;-57
2021/07/27 09:37:02;;;;;;;11.75;7.03;;;;;;;;;;4392338;32;20581;-58
2021/07/27 09:39:28;;;;;;;8.02;6.82;;;;;;;;;;4391171;32;20226;-58
2021/07/27 09:42:08;;;;;;;10.13;6.95;;;;;;;;;;4391542;32;20298;-58
2021/07/27 09:44:37;;;;;;;8.93;6.97;;;;;;;;;;4392486;32;20221;-58
2021/07/27 09:47:03;;;;;;;8.35;7.00;;;;;;;;;;4392483;32;20286;-57
2021/07/27 09:49:29;;;;;;;12.20;7.70;;;;;;;;;;4392472;32;20225;-57
2021/07/27 09:51:58;;;;;;;11.75;6.78;;;;;;;;;;4391912;32;20312;-57
2021/07/27 09:54:26;;;;;;;8.68;7.45;;;;;;;;;;4391814;32;20356;-57
2021/07/27 09:56:53;;;;;;;11.00;8.57;;;;;;;;;;4392281;32;20240;-58
2021/07/27 09:59:20;;;;;;;9.75;7.00;;;;;;;;;;4392162;32;20317;-57
2021/07/27 10:01:59;;;;;;;10.10;8.00;;;;;;;;;;4390876;32;20315;-58
2021/07/27 10:04:36;;;;;;;12.65;7.78;;;;;;;;;;4391904;32;20296;-58
2021/07/27 10:07:03;;;;;;;10.77;7.25;;;;;;;;;;4390790;32;20298;-57
2021/07/27 10:09:33;;;;;;;13.00;6.40;;;;;;;;;;4391728;32;20310;-58
2021/07/27 10:12:08;;;;;;;12.60;6.97;;;;;;;;;;4391707;32;20297;-58
2021/07/27 10:14:44;;;;;;;7.40;6.37;;;;;;;;;;4392474;32;20232;-56
2021/07/27 10:17:11;;;;;;;16.65;8.48;;;;;;;;;;4392157;32;20206;-58
2021/07/27 10:19:57;;;;;;;8.13;6.75;;;;;;;;;;4392113;32;20225;-57
2021/07/27 10:22:30;;;;;;;11.63;7.37;;;;;;;;;;4389936;32;20205;-58
2021/07/27 10:24:56;;;;;;;15.07;6.87;;;;;;;;;;4377221;32;20248;-57
2021/07/27 10:27:21;;;;;;;13.15;7.37;;;;;;;;;;4377450;32;20739;-57
2021/07/27 10:29:50;;;;;;;8.48;6.32;;;;;;;;;;4376760;32;20226;-59
2021/07/27 10:32:18;;;;;;;17.80;7.90;;;;;;;;;;4386672;32;20233;-57
2021/07/27 10:34:44;;;;;;;11.43;7.45;;;;;;;;;;4391402;32;20276;-58
2021/07/27 10:37:17;;;;;;;11.70;8.48;;;;;;;;;;4391700;32;20350;-58
2021/07/27 10:39:46;;;;;;;12.77;7.78;;;;;;;;;;4392149;32;20338;-56
2021/07/27 10:42:12;;;;;;;12.27;7.70;;;;;;;;;;4391593;32;20261;-57
2021/07/27 10:44:37;;;;;;;21.00;7.87;;;;;;;;;;4390902;32;20248;-57
2021/07/27 10:47:03;;;;;;;10.10;6.60;;;;;;;;;;4389367;32;20278;-57
2021/07/27 10:49:29;;;;;;;9.18;7.07;;;;;;;;;;4389797;32;20341;-57
2021/07/27 10:52:01;;;;;;;12.37;7.07;;;;;;;;;;4389820;32;20285;-57
2021/07/27 10:54:33;;;;;;;14.77;7.50;;;;;;;;;;4389788;32;20714;-57
2021/07/27 10:57:04;;;;;;;11.02;6.80;;;;;;;;;;4389991;32;20324;-58
2021/07/27 10:59:32;;;;;;;9.55;5.60;;;;;;;;;;4389423;32;20226;-58
2021/07/27 11:01:59;;;;;;;11.38;7.12;;;;;;;;;;4387867;32;20284;-57
2021/07/27 11:04:32;;;;;;;14.95;7.07;;;;;;;;;;4389343;32;20299;-57
2021/07/27 11:07:10;;;;;;;13.73;6.90;;;;;;;;;;4389111;32;20215;-57
2021/07/27 11:09:55;;;;;;;9.55;5.72;;;;;;;;;;4389606;32;20682;-57
2021/07/27 11:12:34;;;;;;;13.95;6.55;;;;;;;;;;4388219;32;20279;-57
2021/07/27 11:15:03;;;;;;;17.73;5.87;;;;;;;;;;4388923;32;20226;-57
2021/07/27 11:17:29;;;;;;;21.87;5.93;;;;;;;;;;4389616;32;20206;-57
2021/07/27 11:19:54;;;;;;;14.13;6.43;;;;;;;;;;4377609;32;20268;-57
2021/07/27 11:22:20;;;;;;;12.23;6.50;;;;;;;;;;4372699;32;20324;-57
2021/07/27 11:24:46;;;;;;;9.48;5.75;;;;;;;;;;4374026;32;20218;-58
2021/07/27 11:27:16;;;;;;;9.45;5.10;;;;;;;;;;4374212;32;20274;-59
2021/07/27 11:29:41;;;;;;;9.57;5.87;;;;;;;;;;4373601;32;20226;-58
2021/07/27 11:32:15;;;;;;;10.05;5.40;;;;;;;;;;4382798;32;20713;-58
2021/07/27 11:34:41;;;;;;;12.98;6.87;;;;;;;;;;4388717;32;20251;-57
2021/07/27 11:37:06;;;;;;;9.88;5.18;;;;;;;;;;4388885;32;20273;-58
2021/07/27 11:39:41;;;;;;;12.50;6.00;;;;;;;;;;4388979;32;20281;-57
2021/07/27 11:42:06;;;;;;;9.95;5.75;;;;;;;;;;4388499;32;20212;-57
2021/07/27 11:44:32;;;;;;;13.18;5.95;;;;;;;;;;4387734;32;20752;-58
2021/07/27 11:46:57;;;;;;;11.12;6.00;;;;;;;;;;4374738;32;20309;-57
2021/07/27 11:49:25;;;;;;;10.75;5.70;;;;;;;;;;4388768;32;20709;-58
2021/07/27 11:52:01;;;;;;;9.35;6.35;;;;;;;;;;4388722;32;20229;-58
2021/07/27 11:54:26;;;;;;;15.80;6.60;;;;;;;;;;4387242;32;20248;-58
2021/07/27 11:56:52;;;;;;;6.50;5.18;;;;;;;;;;4388074;32;20278;-58
2021/07/27 11:59:27;;;;;;;12.40;5.75;;;;;;;;;;4388340;32;20248;-58
2021/07/27 12:01:53;;;;;;;16.30;6.22;;;;;;;;;;4388294;32;20270;-59
2021/07/27 12:04:19;;;;;;;9.05;5.53;;;;;;;;;;4387614;32;20722;-59
2021/07/27 12:06:45;;;;;;;11.65;5.87;;;;;;;;;;4388457;32;21568;-59
2021/07/27 12:09:10;;;;;;;10.02;6.43;;;;;;;;;;4388247;32;20321;-58
2021/07/27 12:11:36;;;;;;;12.80;6.68;;;;;;;;;;4388196;32;20205;-58
2021/07/27 12:14:01;;;;;;;16.15;6.45;;;;;;;;;;4388135;32;20693;-58
2021/07/27 12:16:26;;;;;;;12.10;5.95;;;;;;;;;;4376334;32;20285;-57
2021/07/27 12:18:52;;;;;;;13.73;6.43;;;;;;;;;;4373239;32;20538;-57
2021/07/27 12:21:17;;;;;;;14.38;6.05;;;;;;;;;;4373416;32;20277;-57
2021/07/27 12:23:43;;;;;;;14.23;5.72;;;;;;;;;;4372999;32;20222;-57
2021/07/27 12:26:08;;;;;;;12.35;5.57;;;;;;;;;;4373513;32;20269;-58
2021/07/27 12:28:34;;;;;;;15.38;6.78;;;;;;;;;;4373319;32;20232;-58
2021/07/27 12:30:59;;;;;;;16.50;6.43;;;;;;;;;;4374904;32;20269;-58
2021/07/27 12:33:25;;;;;;;17.92;6.15;;;;;;;;;;4388549;32;20617;-57
2021/07/27 12:35:50;;;;;;;14.02;6.03;;;;;;;;;;4388213;32;20295;-57
2021/07/27 12:38:17;;;;;;;15.00;6.90;;;;;;;;;;4388045;32;20245;-57
2021/07/27 12:40:42;;;;;;;12.05;5.70;;;;;;;;;;4387746;32;20264;-59
2021/07/27 12:43:08;;;;;;;12.25;6.15;;;;;;;;;;4387130;32;20295;-58
2021/07/27 12:45:33;;;;;;;21.62;6.20;;;;;;;;;;4386850;32;20269;-57
2021/07/27 12:48:00;;;;;;;14.87;5.70;;;;;;;;;;4387817;32;20777;-57
2021/07/27 12:50:26;;;;;;;13.60;7.00;;;;;;;;;;4388254;32;20251;-57
2021/07/27 12:52:51;;;;;;;10.45;5.68;;;;;;;;;;4387660;32;20264;-58
2021/07/27 12:55:17;;;;;;;19.90;7.40;;;;;;;;;;4388213;32;20670;-57
2021/07/27 12:57:42;;;;;;;11.23;6.32;;;;;;;;;;4387968;32;20709;-58
2021/07/27 13:00:08;;;;;;;11.50;6.40;;;;;;;;;;4387641;32;20288;-58
2021/07/27 13:02:34;;;;;;;17.52;6.12;;;;;;;;;;4387746;32;20276;-58
2021/07/27 13:05:00;;;;;;;17.00;4.87;;;;;;;;;;4387902;32;20260;-58
2021/07/27 13:07:25;;;;;;;8.20;5.75;;;;;;;;;;4387219;32;20334;-58
2021/07/27 13:09:51;;;;;;;10.55;5.75;;;;;;;;;;4387166;32;20217;-58
2021/07/27 13:12:17;;;;;;;11.98;6.10;;;;;;;;;;4387409;32;20570;-59
2021/07/27 13:14:43;;;;;;;17.25;5.85;;;;;;;;;;4387255;32;20308;-58
2021/07/27 13:17:09;;;;;;;15.82;6.70;;;;;;;;;;4387875;32;20277;-58
2021/07/27 13:19:35;;;;;;;12.82;6.20;;;;;;;;;;4387505;32;20374;-57
2021/07/27 13:22:05;;;;;;;11.43;5.00;;;;;;;;;;4387692;32;20625;-58
2021/07/27 13:24:33;;;;;;;13.48;5.43;;;;;;;;;;4387996;32;20252;-58
2021/07/27 13:27:00;;;;;;;10.43;5.60;;;;;;;;;;4387430;32;20214;-57
2021/07/27 13:29:25;;;;;;;15.35;6.53;;;;;;;;;;4387731;32;20281;-59
2021/07/27 13:31:51;;;;;;;8.80;5.15;;;;;;;;;;4387431;32;20290;-59
2021/07/27 13:34:19;;;;;;;12.55;5.82;;;;;;;;;;4386514;32;20622;-58
2021/07/27 13:36:45;;;;;;;13.95;5.68;;;;;;;;;;4386192;32;20273;-59
2021/07/27 13:39:10;;;;;;;16.23;5.75;;;;;;;;;;4387464;32;20247;-58
2021/07/27 13:41:36;;;;;;;6.72;4.43;;;;;;;;;;4386946;32;20288;-58
2021/07/27 13:44:01;;;;;;;13.10;5.65;;;;;;;;;;4387007;32;20252;-58
2021/07/27 13:46:27;;;;;;;14.13;5.35;;;;;;;;;;4387555;32;20367;-59
2021/07/27 13:48:52;;;;;;;14.23;5.68;;;;;;;;;;4387206;32;20303;-58
2021/07/27 13:51:18;;;;;;;12.85;7.10;;;;;;;;;;4386872;32;20272;-58
2021/07/27 13:53:43;;;;;;;9.70;5.62;;;;;;;;;;4387160;32;20217;-58
2021/07/27 13:56:09;;;;;;;13.50;5.90;;;;;;;;;;4387345;32;20269;-57
2021/07/27 13:58:34;;;;;;;22.80;5.47;;;;;;;;;;4386857;32;20283;-57
2021/07/27 14:01:03;;;;;;;15.48;4.95;;;;;;;;;;4386796;32;20260;-58
2021/07/27 14:03:29;;;;;;;17.75;6.65;;;;;;;;;;4386791;32;20299;-58
2021/07/27 14:05:54;;;;;;;15.90;6.47;;;;;;;;;;4387304;32;20289;-59
2021/07/27 14:08:20;;;;;;;15.45;6.68;;;;;;;;;;4379262;32;20244;-58
2021/07/27 14:10:46;;;;;;;13.62;6.97;;;;;;;;;;4371808;32;20244;-57
2021/07/27 14:13:11;;;;;;;13.65;5.70;;;;;;;;;;4372281;32;20648;-58
2021/07/27 14:15:39;;;;;;;14.02;5.68;;;;;;;;;;4371703;32;20339;-58
2021/07/27 14:18:05;;;;;;;12.90;6.55;;;;;;;;;;4371842;32;20627;-58
2021/07/27 14:20:31;;;;;;;14.40;5.82;;;;;;;;;;4374348;32;20293;-57
2021/07/27 14:22:57;;;;;;;16.17;7.47;;;;;;;;;;4374342;32;20355;-57
2021/07/27 14:25:24;;;;;;;14.55;6.05;;;;;;;;;;4375189;32;20288;-58
2021/07/27 14:27:50;;;;;;;13.55;6.20;;;;;;;;;;4374037;32;20565;-59
2021/07/27 14:30:16;;;;;;;12.43;6.30;;;;;;;;;;4374156;32;20276;-58
2021/07/27 14:32:42;;;;;;;13.05;6.45;;;;;;;;;;4386621;32;20295;-58
2021/07/27 14:35:08;;;;;;;12.82;5.78;;;;;;;;;;4389449;32;20273;-58
2021/07/27 14:37:33;;;;;;;10.95;6.12;;;;;;;;;;4389502;32;20288;-58
2021/07/27 14:39:59;;;;;;;15.65;6.47;;;;;;;;;;4389360;32;20221;-58
2021/07/27 14:42:24;;;;;;;14.63;6.87;;;;;;;;;;4389208;32;20277;-57